Time;durP1;ratioP1;P1;durP2;ratioP2;P2;SDS_P1;SDS_P2;PMS_P1;PMS_P2;Temp;Humidity;BMP_temperature;BMP_pressure;BME280_temperature;BME280_humidity;BME280_pressure;Samples;Min_cycle;Max_cycle;Signal;HPM_P1;HPM_P2
2023/08/05 00:01:52;;;;;;;5.40;1.08;;;20.60;96.70;;;;;;5073779;28;20048;-84
2023/08/05 00:04:20;;;;;;;3.22;0.82;;;20.60;96.70;;;;;;5067405;28;20044;-83
2023/08/05 00:06:48;;;;;;;5.05;0.93;;;20.60;96.70;;;;;;5055924;28;20506;-83
2023/08/05 00:09:18;;;;;;;4.80;1.20;;;20.70;96.70;;;;;;5056501;28;20517;-83
2023/08/05 00:11:45;;;;;;;3.45;1.05;;;20.80;96.70;;;;;;5067268;28;20041;-83
2023/08/05 00:14:14;;;;;;;5.07;1.23;;;21.00;96.70;;;;;;5066890;28;20041;-83
2023/08/05 00:16:42;;;;;;;5.22;0.98;;;20.90;96.70;;;;;;5067274;28;20052;-81
2023/08/05 00:19:10;;;;;;;2.95;0.90;;;20.90;96.70;;;;;;5066851;28;20052;-83
2023/08/05 00:21:38;;;;;;;5.95;1.15;;;20.80;96.70;;;;;;5067321;28;20399;-83
2023/08/05 00:24:06;;;;;;;5.47;1.00;;;20.70;96.70;;;;;;5059975;28;20544;-81
2023/08/05 00:26:35;;;;;;;6.68;1.35;;;20.60;96.70;;;;;;5066394;28;20118;-83
2023/08/05 00:29:03;;;;;;;4.25;1.35;;;20.60;96.70;;;;;;5041043;28;20048;-83
2023/08/05 00:31:31;;;;;;;5.30;0.85;;;20.50;96.70;;;;;;5064528;28;20057;-83
2023/08/05 00:33:59;;;;;;;5.18;1.42;;;20.50;96.70;;;;;;5053411;28;20051;-83
2023/08/05 00:36:27;;;;;;;5.47;1.05;;;20.40;96.70;;;;;;5066018;28;20048;-82
2023/08/05 00:38:55;;;;;;;5.60;1.48;;;20.40;96.70;;;;;;5066144;28;20116;-83
2023/08/05 00:41:23;;;;;;;5.95;1.55;;;20.40;96.70;;;;;;5058104;28;20048;-84
2023/08/05 00:43:52;;;;;;;4.80;0.90;;;20.40;96.70;;;;;;5049329;28;20064;-83
2023/08/05 00:46:22;;;;;;;6.50;1.08;;;20.30;96.70;;;;;;5065153;28;20041;-84
2023/08/05 00:48:52;;;;;;;4.65;1.10;;;20.40;96.70;;;;;;5054950;28;20075;-81
2023/08/05 00:51:21;;;;;;;3.78;1.08;;;20.40;96.70;;;;;;5069321;28;20135;-84
2023/08/05 00:53:50;;;;;;;6.40;1.20;;;20.30;96.70;;;;;;5057973;28;20048;-84
2023/08/05 00:56:18;;;;;;;5.80;1.20;;;20.30;96.70;;;;;;5065291;28;20040;-84
2023/08/05 00:58:46;;;;;;;5.25;1.30;;;20.50;96.70;;;;;;5050207;28;20151;-82
2023/08/05 01:01:16;;;;;;;4.32;1.00;;;20.60;96.70;;;;;;5074210;28;20124;-83
2023/08/05 01:03:44;;;;;;;4.25;1.17;;;20.60;96.70;;;;;;5065571;28;20098;-84
2023/08/05 01:06:12;;;;;;;5.78;1.25;;;20.60;96.70;;;;;;5050561;28;20044;-85
2023/08/05 01:08:41;;;;;;;3.58;1.20;;;20.50;96.70;;;;;;5082990;28;20498;-85
2023/08/05 01:11:11;;;;;;;7.47;1.70;;;20.30;96.70;;;;;;5066993;28;20070;-84
2023/08/05 01:13:40;;;;;;;3.70;0.95;;;20.30;96.70;;;;;;5066593;28;20059;-85
2023/08/05 01:16:08;;;;;;;4.22;0.82;;;20.50;96.70;;;;;;5068496;28;20036;-84
2023/08/05 01:18:39;;;;;;;3.50;1.05;;;20.50;96.70;;;;;;5066614;28;20052;-83
2023/08/05 01:21:13;;;;;;;3.20;1.05;;;20.60;96.70;;;;;;5065648;28;20044;-83
2023/08/05 01:23:54;;;;;;;2.30;0.70;;;20.60;96.70;;;;;;5066668;28;20059;-84
2023/08/05 01:26:25;;;;;;;2.67;0.90;;;20.40;96.70;;;;;;5066685;28;20045;-84
2023/08/05 01:28:54;;;;;;;4.60;0.90;;;20.30;96.70;;;;;;5066756;28;20052;-83
2023/08/05 01:31:22;;;;;;;3.40;1.00;;;20.50;96.70;;;;;;5058069;28;20219;-84
2023/08/05 01:33:51;;;;;;;3.38;0.75;;;20.60;96.70;;;;;;5060210;28;20086;-84
2023/08/05 01:36:20;;;;;;;4.05;1.02;;;20.40;96.70;;;;;;5045969;28;20485;-83
2023/08/05 01:38:49;;;;;;;4.57;0.88;;;20.40;96.70;;;;;;5065883;28;20071;-84
2023/08/05 01:41:17;;;;;;;3.45;0.82;;;20.30;96.70;;;;;;5067977;28;20051;-84
2023/08/05 01:43:46;;;;;;;3.33;0.93;;;20.20;96.70;;;;;;5066272;28;20048;-85
2023/08/05 01:46:14;;;;;;;3.72;0.80;;;20.20;96.70;;;;;;5064378;28;20080;-76
2023/08/05 01:48:42;;;;;;;4.82;1.20;;;20.10;96.70;;;;;;5062638;28;20521;-76
2023/08/05 01:51:10;;;;;;;3.75;1.02;;;20.10;96.70;;;;;;5045768;28;20101;-76
2023/08/05 01:53:38;;;;;;;5.00;1.00;;;20.10;96.70;;;;;;5044968;28;20048;-76
2023/08/05 01:56:06;;;;;;;5.03;0.88;;;20.10;96.70;;;;;;5063643;28;20531;-76
2023/08/05 01:58:34;;;;;;;3.63;1.02;;;20.00;96.70;;;;;;5061669;28;20045;-76
2023/08/05 02:01:04;;;;;;;5.05;0.88;;;20.00;96.70;;;;;;5053719;28;20041;-77
2023/08/05 02:03:32;;;;;;;4.72;1.00;;;20.10;96.70;;;;;;5062624;28;20049;-76
2023/08/05 02:06:00;;;;;;;5.30;0.90;;;20.10;96.70;;;;;;5062075;28;20045;-76
2023/08/05 02:08:28;;;;;;;3.47;0.90;;;20.10;96.70;;;;;;5063307;28;20063;-76
2023/08/05 02:10:55;;;;;;;2.05;0.77;;;20.10;96.70;;;;;;5060643;28;20707;-75
2023/08/05 02:13:23;;;;;;;4.60;0.90;;;20.10;96.70;;;;;;5062525;28;20051;-77
2023/08/05 02:15:51;;;;;;;3.83;1.10;;;20.00;96.70;;;;;;5045689;28;20045;-76
2023/08/05 02:18:21;;;;;;;2.33;0.77;;;20.00;96.70;;;;;;5064143;28;20063;-76
2023/08/05 02:20:49;;;;;;;4.38;1.00;;;20.00;96.70;;;;;;5079122;28;20102;-76
2023/08/05 02:23:17;;;;;;;3.17;1.00;;;20.10;96.70;;;;;;5061579;28;20593;-76
2023/08/05 02:25:45;;;;;;;6.38;1.42;;;20.10;96.70;;;;;;5045268;28;20110;-77
2023/08/05 02:28:13;;;;;;;3.42;0.70;;;20.10;96.70;;;;;;5044648;28;20045;-76
2023/08/05 02:30:41;;;;;;;3.58;1.00;;;20.00;96.70;;;;;;5062011;28;20055;-76
2023/08/05 02:33:09;;;;;;;3.92;1.08;;;20.00;96.70;;;;;;5045114;28;20074;-76
2023/08/05 02:35:46;;;;;;;4.63;1.02;;;20.00;96.70;;;;;;5064098;28;20049;-75
2023/08/05 02:38:15;;;;;;;4.85;0.90;;;19.90;96.70;;;;;;5061704;28;20552;-76
2023/08/05 02:40:44;;;;;;;4.53;0.82;;;19.90;96.70;;;;;;5063589;28;20045;-76
2023/08/05 02:43:13;;;;;;;4.88;1.15;;;20.00;96.70;;;;;;5062955;28;20127;-76
2023/08/05 02:45:42;;;;;;;2.60;0.73;;;20.00;96.70;;;;;;5061897;28;20090;-76
2023/08/05 02:48:12;;;;;;;4.50;0.93;;;20.00;96.70;;;;;;5063511;28;20040;-76
2023/08/05 02:50:40;;;;;;;3.70;0.90;;;20.10;96.70;;;;;;5063992;28;20040;-76
2023/08/05 02:53:11;;;;;;;5.72;1.13;;;20.10;96.70;;;;;;5060516;28;20044;-76
2023/08/05 02:55:40;;;;;;;4.20;1.02;;;20.10;96.70;;;;;;5063531;28;20055;-76
2023/08/05 02:58:09;;;;;;;2.28;0.90;;;20.00;96.70;;;;;;5044082;28;20037;-76
2023/08/05 03:00:38;;;;;;;4.10;0.80;;;20.00;96.70;;;;;;5054247;28;20569;-75
2023/08/05 03:03:08;;;;;;;5.32;1.25;;;20.10;96.70;;;;;;5062637;28;20267;-75
2023/08/05 03:05:37;;;;;;;2.85;0.90;;;20.00;96.70;;;;;;5062269;28;20121;-76
2023/08/05 03:08:06;;;;;;;3.53;1.40;;;20.00;96.70;;;;;;5049055;28;20117;-76
2023/08/05 03:10:37;;;;;;;4.00;1.05;;;20.00;96.70;;;;;;5049002;28;20471;-77
2023/08/05 03:13:06;;;;;;;3.78;0.77;;;20.00;96.70;;;;;;5048893;28;20048;-76
2023/08/05 03:15:36;;;;;;;6.60;1.30;;;20.00;96.70;;;;;;5064974;28;20048;-76
2023/08/05 03:18:13;;;;;;;3.75;0.80;;;20.00;96.70;;;;;;5064785;28;20047;-76
2023/08/05 03:20:44;;;;;;;2.85;0.70;;;20.10;96.70;;;;;;5065192;28;20399;-76
2023/08/05 03:23:16;;;;;;;3.53;0.98;;;20.10;96.70;;;;;;5064401;28;20086;-76
2023/08/05 03:25:51;;;;;;;4.93;1.10;;;20.10;96.70;;;;;;5064509;28;20052;-76
2023/08/05 03:28:21;;;;;;;4.15;0.80;;;20.10;96.70;;;;;;5064533;28;21122;-76
2023/08/05 03:30:52;;;;;;;2.65;0.95;;;20.10;96.70;;;;;;5048366;28;20502;-75
2023/08/05 03:33:33;;;;;;;2.17;0.60;;;20.10;96.70;;;;;;5048225;28;20464;-76
2023/08/05 03:36:07;;;;;;;5.43;1.23;;;20.10;96.70;;;;;;5065170;28;20045;-77
2023/08/05 03:38:37;;;;;;;2.78;0.98;;;20.10;96.70;;;;;;5064613;28;20583;-76
2023/08/05 03:41:08;;;;;;;3.55;0.85;;;20.10;96.70;;;;;;5063586;28;20056;-76
2023/08/05 03:43:37;;;;;;;4.32;1.20;;;20.20;96.70;;;;;;5064258;28;20051;-76
2023/08/05 03:46:07;;;;;;;4.78;1.15;;;20.20;96.70;;;;;;5065021;28;20037;-76
2023/08/05 03:48:37;;;;;;;4.78;1.40;;;20.10;96.70;;;;;;5056012;28;20052;-76
2023/08/05 03:51:06;;;;;;;3.05;0.80;;;20.00;96.70;;;;;;5064795;28;20058;-76
2023/08/05 03:53:35;;;;;;;2.88;0.73;;;19.90;96.70;;;;;;5063774;28;20122;-76
2023/08/05 03:56:08;;;;;;;5.68;1.35;;;19.90;96.70;;;;;;5061985;28;20078;-76
2023/08/05 03:58:38;;;;;;;4.05;0.82;;;19.80;96.70;;;;;;5047384;28;20482;-76
2023/08/05 04:01:08;;;;;;;5.00;1.00;;;19.90;96.70;;;;;;5064570;28;20387;-76
2023/08/05 04:03:36;;;;;;;5.80;1.02;;;19.90;96.70;;;;;;5044053;28;20052;-76
2023/08/05 04:06:05;;;;;;;4.82;0.90;;;19.90;96.70;;;;;;5063614;28;20071;-76
2023/08/05 04:08:34;;;;;;;3.35;0.90;;;20.00;96.70;;;;;;5060773;28;20041;-76
2023/08/05 04:11:03;;;;;;;4.35;1.13;;;20.00;96.70;;;;;;5064874;28;20048;-76
2023/08/05 04:13:37;;;;;;;3.03;0.80;;;20.10;96.70;;;;;;5055032;28;20052;-76
2023/08/05 04:16:08;;;;;;;5.60;0.98;;;20.20;96.70;;;;;;5064089;28;20505;-76
2023/08/05 04:18:42;;;;;;;4.43;0.90;;;20.10;96.70;;;;;;5063875;28;20179;-76
2023/08/05 04:21:11;;;;;;;5.63;1.05;;;20.00;96.70;;;;;;5060755;28;20052;-75
2023/08/05 04:23:42;;;;;;;4.50;0.93;;;20.10;96.70;;;;;;5064600;28;20063;-76
2023/08/05 04:26:11;;;;;;;3.30;0.88;;;20.10;96.70;;;;;;5065457;28;20450;-76
2023/08/05 04:28:42;;;;;;;5.80;1.48;;;20.10;96.70;;;;;;5062636;28;20072;-74
2023/08/05 04:31:12;;;;;;;4.03;0.90;;;20.10;96.70;;;;;;5065281;28;20165;-76
2023/08/05 04:33:42;;;;;;;2.35;0.77;;;20.10;96.70;;;;;;5063232;28;20040;-76
2023/08/05 04:36:11;;;;;;;3.63;1.00;;;20.10;96.70;;;;;;5046784;28;20045;-77
2023/08/05 04:38:40;;;;;;;3.50;0.65;;;20.20;96.70;;;;;;5062488;28;20418;-76
2023/08/05 04:41:09;;;;;;;4.05;0.75;;;20.30;96.70;;;;;;5047115;28;20049;-76
2023/08/05 04:43:38;;;;;;;2.58;0.82;;;20.30;96.70;;;;;;5063014;28;20044;-76
2023/08/05 04:46:11;;;;;;;1.85;0.80;;;20.30;96.70;;;;;;5063502;28;20044;-76
2023/08/05 04:48:40;;;;;;;5.28;0.85;;;20.20;96.70;;;;;;5071862;28;20051;-76
2023/08/05 04:51:09;;;;;;;3.88;0.82;;;20.20;96.70;;;;;;5064074;28;20049;-76
2023/08/05 04:53:39;;;;;;;3.83;0.90;;;20.20;96.70;;;;;;5062896;28;20413;-76
2023/08/05 04:56:08;;;;;;;1.92;0.68;;;20.20;96.70;;;;;;5063248;28;20052;-76
2023/08/05 04:58:37;;;;;;;3.40;0.82;;;20.30;96.70;;;;;;5063773;28;20036;-76
2023/08/05 05:01:06;;;;;;;4.13;0.60;;;20.50;96.70;;;;;;5064559;28;20485;-76
2023/08/05 05:03:37;;;;;;;2.13;0.85;;;20.40;96.70;;;;;;5062332;28;20136;-76
2023/08/05 05:06:06;;;;;;;3.58;1.08;;;20.40;96.70;;;;;;5062631;28;20036;-76
2023/08/05 05:08:36;;;;;;;2.80;0.77;;;20.30;96.70;;;;;;5062035;28;20492;-76
2023/08/05 05:11:05;;;;;;;3.65;0.57;;;20.30;96.70;;;;;;5062262;28;20052;-75
2023/08/05 05:13:34;;;;;;;4.85;0.88;;;20.40;96.70;;;;;;5062581;28;20041;-75
2023/08/05 05:16:03;;;;;;;3.92;0.75;;;20.40;96.70;;;;;;5062602;28;20703;-75
2023/08/05 05:18:32;;;;;;;4.18;1.02;;;20.40;96.70;;;;;;5063724;28;20036;-76
2023/08/05 05:21:04;;;;;;;2.33;0.70;;;20.50;96.70;;;;;;5062426;28;20064;-76
2023/08/05 05:23:33;;;;;;;3.60;0.85;;;20.50;96.70;;;;;;5045057;28;20044;-76
2023/08/05 05:26:09;;;;;;;3.17;1.00;;;20.40;96.70;;;;;;5063511;28;20059;-76
2023/08/05 05:28:38;;;;;;;2.77;0.67;;;20.40;96.70;;;;;;5061106;28;20401;-76
2023/08/05 05:31:07;;;;;;;2.58;1.02;;;20.50;96.70;;;;;;5063358;28;20299;-76
2023/08/05 05:33:37;;;;;;;3.03;0.90;;;20.60;96.70;;;;;;5044755;28;20044;-76
2023/08/05 05:36:07;;;;;;;2.15;0.80;;;20.60;96.70;;;;;;5063563;28;20673;-76
2023/08/05 05:38:37;;;;;;;4.85;0.98;;;20.70;96.70;;;;;;5053376;28;20056;-76
2023/08/05 05:41:06;;;;;;;2.53;0.80;;;20.70;96.70;;;;;;5045268;28;20053;-76
2023/08/05 05:43:38;;;;;;;3.45;1.10;;;20.60;96.70;;;;;;5074565;28;20044;-76
2023/08/05 05:46:07;;;;;;;4.22;0.80;;;20.60;96.70;;;;;;5061996;28;20494;-76
2023/08/05 05:48:36;;;;;;;3.08;0.82;;;20.50;96.70;;;;;;5059873;28;20514;-76
2023/08/05 05:51:07;;;;;;;1.98;0.80;;;20.50;96.70;;;;;;5055875;28;20072;-76
2023/08/05 05:53:37;;;;;;;2.40;0.90;;;20.60;96.70;;;;;;5061272;28;20045;-76
2023/08/05 05:56:06;;;;;;;6.35;1.38;;;20.60;96.70;;;;;;5061219;28;20424;-75
2023/08/05 05:58:35;;;;;;;2.33;1.02;;;20.60;96.70;;;;;;5062067;28;20113;-76
2023/08/05 06:01:04;;;;;;;3.83;0.93;;;20.70;96.70;;;;;;5062976;28;20052;-75
2023/08/05 06:03:34;;;;;;;2.63;0.80;;;20.80;96.70;;;;;;5061311;28;20052;-76
2023/08/05 06:06:04;;;;;;;4.15;0.93;;;20.80;96.70;;;;;;5059289;28;20055;-74
2023/08/05 06:08:34;;;;;;;4.57;1.48;;;20.60;96.70;;;;;;5061890;28;20052;-76
2023/08/05 06:11:04;;;;;;;2.38;0.80;;;20.60;96.70;;;;;;5063022;28;20048;-76
2023/08/05 06:13:33;;;;;;;3.72;0.85;;;20.70;96.70;;;;;;5061621;28;20045;-77
2023/08/05 06:16:04;;;;;;;3.83;1.52;;;20.70;96.70;;;;;;5045777;28;20084;-78
2023/08/05 06:18:34;;;;;;;2.78;0.95;;;20.80;96.70;;;;;;5061712;28;20536;-78
2023/08/05 06:21:05;;;;;;;2.80;0.80;;;20.80;96.70;;;;;;5045517;28;20044;-78
2023/08/05 06:23:36;;;;;;;3.90;1.05;;;20.90;96.70;;;;;;5061084;28;20058;-77
2023/08/05 06:26:05;;;;;;;2.45;0.82;;;20.80;96.70;;;;;;5059435;28;20101;-77
2023/08/05 06:28:36;;;;;;;5.32;1.08;;;20.90;96.70;;;;;;5043543;28;20110;-77
2023/08/05 06:31:06;;;;;;;2.97;0.82;;;20.90;96.70;;;;;;5060378;28;20048;-77
2023/08/05 06:33:35;;;;;;;4.93;1.30;;;20.90;96.70;;;;;;5061609;28;20059;-76
2023/08/05 06:36:05;;;;;;;4.00;1.10;;;20.80;96.70;;;;;;5063463;28;20484;-76
2023/08/05 06:38:36;;;;;;;2.85;1.10;;;20.60;96.70;;;;;;5061899;28;20051;-75
2023/08/05 06:41:05;;;;;;;2.78;1.20;;;20.40;96.70;;;;;;5059852;28;20135;-76
2023/08/05 06:43:34;;;;;;;3.38;1.15;;;20.30;96.70;;;;;;5066203;28;20689;-77
2023/08/05 06:46:04;;;;;;;3.20;1.10;;;20.30;96.70;;;;;;5065115;28;20576;-77
2023/08/05 06:48:33;;;;;;;4.03;1.00;;;20.30;96.70;;;;;;5063659;28;20045;-78
2023/08/05 06:51:02;;;;;;;2.50;0.90;;;20.10;96.70;;;;;;5064595;28;20048;-77
2023/08/05 06:53:33;;;;;;;2.78;1.05;;;20.20;96.70;;;;;;5064776;28;20037;-77
2023/08/05 06:56:05;;;;;;;2.88;0.95;;;20.10;96.70;;;;;;5048841;28;20091;-78
2023/08/05 06:58:34;;;;;;;3.45;0.90;;;20.20;96.70;;;;;;5060069;28;20147;-78
2023/08/05 07:01:03;;;;;;;2.38;0.90;;;20.40;96.70;;;;;;5048196;28;20123;-78
2023/08/05 07:03:32;;;;;;;2.75;1.25;;;20.40;96.70;;;;;;5065020;28;20036;-77
2023/08/05 07:06:01;;;;;;;4.20;1.65;;;20.50;96.70;;;;;;5066562;28;20111;-78
2023/08/05 07:08:29;;;;;;;4.15;1.23;;;20.60;96.70;;;;;;5066237;28;20045;-78
2023/08/05 07:10:58;;;;;;;2.83;1.13;;;20.60;96.70;;;;;;5064870;28;20123;-77
2023/08/05 07:13:28;;;;;;;2.55;1.17;;;20.50;96.70;;;;;;5059945;28;20071;-77
2023/08/05 07:16:01;;;;;;;4.75;1.00;;;20.60;96.70;;;;;;5061980;28;20045;-78
2023/08/05 07:18:30;;;;;;;6.65;1.55;;;20.60;96.70;;;;;;5056121;28;20044;-76
2023/08/05 07:20:59;;;;;;;3.38;1.15;;;20.80;96.70;;;;;;5064643;28;20083;-77
2023/08/05 07:23:27;;;;;;;3.47;1.30;;;20.90;96.70;;;;;;5065764;28;20047;-76
2023/08/05 07:26:00;;;;;;;4.22;1.20;;;20.90;96.70;;;;;;5064195;28;20440;-77
2023/08/05 07:28:31;;;;;;;3.55;1.38;;;21.10;96.70;;;;;;5065689;28;20094;-76
2023/08/05 07:31:04;;;;;;;19.80;14.85;;;20.90;96.70;;;;;;5064835;28;20060;-76
2023/08/05 07:33:32;;;;;;;3.85;2.33;;;21.00;96.70;;;;;;5065978;28;20055;-76
2023/08/05 07:36:08;;;;;;;3.83;2.22;;;21.10;96.70;;;;;;5064551;28;20098;-76
2023/08/05 07:38:39;;;;;;;4.38;1.88;;;21.30;96.70;;;;;;5063882;28;20113;-77
2023/08/05 07:41:12;;;;;;;4.55;1.35;;;21.30;96.70;;;;;;5064164;28;20056;-77
2023/08/05 07:43:42;;;;;;;5.13;1.33;;;21.20;96.70;;;;;;5065332;28;20036;-77
2023/08/05 07:46:13;;;;;;;2.80;1.13;;;21.10;96.70;;;;;;5064152;28;20166;-76
2023/08/05 07:48:45;;;;;;;3.15;1.10;;;21.30;96.70;;;;;;5063707;28;20056;-76
2023/08/05 07:51:14;;;;;;;2.78;0.98;;;21.40;96.70;;;;;;5044511;28;20045;-76
2023/08/05 07:53:42;;;;;;;2.60;0.85;;;21.40;96.70;;;;;;5063701;28;20043;-76
2023/08/05 07:56:12;;;;;;;1.40;0.75;;;21.40;96.70;;;;;;5065482;28;20140;-76
2023/08/05 07:58:46;;;;;;;1.98;0.80;;;21.60;96.70;;;;;;5061382;28;20044;-76
2023/08/05 08:01:22;;;;;;;3.67;0.90;;;21.80;96.70;;;;;;5062647;28;20139;-76
2023/08/05 08:03:53;;;;;;;2.33;0.80;;;21.70;96.70;;;;;;5063878;28;21386;-76
2023/08/05 08:06:23;;;;;;;3.03;0.98;;;21.70;96.70;;;;;;5074177;28;20098;-76
2023/08/05 08:08:51;;;;;;;4.53;0.68;;;21.80;96.70;;;;;;5066487;28;20044;-82
2023/08/05 08:11:20;;;;;;;1.73;0.57;;;21.90;96.70;;;;;;5067735;28;20051;-83
2023/08/05 08:13:49;;;;;;;1.52;0.68;;;22.00;96.70;;;;;;5067324;28;20048;-84
2023/08/05 08:16:18;;;;;;;4.03;0.98;;;22.10;96.70;;;;;;5068888;28;20385;-86
2023/08/05 08:18:47;;;;;;;1.95;0.88;;;22.10;96.70;;;;;;5066785;28;20040;-82
2023/08/05 08:21:15;;;;;;;5.40;0.80;;;22.20;96.70;;;;;;5049990;28;20512;-81
2023/08/05 08:23:43;;;;;;;2.58;0.60;;;22.30;96.70;;;;;;5063580;28;20563;-82
2023/08/05 08:26:11;;;;;;;3.35;1.52;;;22.30;96.70;;;;;;5065727;28;20110;-81
2023/08/05 08:28:40;;;;;;;4.50;1.20;;;22.40;96.70;;;;;;5065684;28;20048;-80
2023/08/05 08:31:10;;;;;;;4.68;1.08;;;22.40;96.70;;;;;;5066310;28;20067;-82
2023/08/05 08:33:39;;;;;;;2.00;1.00;;;22.30;96.70;;;;;;5081032;28;20058;-84
2023/08/05 08:36:08;;;;;;;3.78;1.15;;;22.30;96.70;;;;;;5066995;28;20036;-81
2023/08/05 08:38:36;;;;;;;4.10;0.77;;;22.30;96.70;;;;;;5065206;28;20037;-81
2023/08/05 08:41:04;;;;;;;4.28;0.93;;;22.30;96.70;;;;;;5066139;28;20428;-82
2023/08/05 08:43:34;;;;;;;2.45;1.23;;;22.30;96.70;;;;;;5065483;28;20080;-81
2023/08/05 08:46:05;;;;;;;1.90;1.05;;;22.40;96.70;;;;;;5064565;28;20063;-81
2023/08/05 08:48:38;;;;;;;3.50;1.00;;;22.50;96.70;;;;;;5065491;28;20098;-82
2023/08/05 08:51:09;;;;;;;2.35;1.05;;;22.50;96.70;;;;;;5066567;28;20041;-84
2023/08/05 08:53:37;;;;;;;5.15;0.98;;;22.60;96.70;;;;;;5066501;28;20065;-82
2023/08/05 08:56:06;;;;;;;2.13;0.70;;;22.60;96.70;;;;;;5048573;28;20059;-82
2023/08/05 08:58:37;;;;;;;3.22;1.35;;;22.70;96.70;;;;;;5060783;28;20137;-82
2023/08/05 09:01:06;;;;;;;2.83;0.77;;;22.70;96.70;;;;;;5066084;28;20405;-83
2023/08/05 09:03:38;;;;;;;1.73;0.80;;;22.70;96.70;;;;;;5065071;28;20078;-82
2023/08/05 09:06:06;;;;;;;3.90;1.02;;;22.70;96.70;;;;;;5065520;28;20050;-83
2023/08/05 09:08:35;;;;;;;3.20;0.90;;;22.80;96.70;;;;;;5048786;28;21291;-84
2023/08/05 09:11:04;;;;;;;3.08;0.90;;;22.80;96.70;;;;;;5065363;28;20044;-83
2023/08/05 09:13:32;;;;;;;4.75;1.40;;;22.90;96.70;;;;;;5064824;28;20260;-80
2023/08/05 09:16:01;;;;;;;3.95;1.85;;;22.80;96.70;;;;;;5064823;28;20057;-80
2023/08/05 09:18:51;;;;;;;2.22;1.10;;;22.90;96.70;;;;;;5065000;28;20103;-84
2023/08/05 09:21:24;;;;;;;2.85;1.05;;;22.90;96.70;;;;;;5065206;28;20052;-84
2023/08/05 09:23:55;;;;;;;2.30;1.00;;;23.00;96.70;;;;;;5066417;28;20478;-83
2023/08/05 09:26:27;;;;;;;4.25;1.33;;;23.10;96.70;;;;;;5065441;28;20040;-83
2023/08/05 09:28:57;;;;;;;4.03;1.30;;;23.30;96.70;;;;;;5065901;28;20569;-84
2023/08/05 09:31:26;;;;;;;2.70;1.02;;;23.50;96.70;;;;;;5049209;28;20080;-80
2023/08/05 09:33:55;;;;;;;4.25;1.20;;;23.60;96.70;;;;;;5048052;28;20064;-83
2023/08/05 09:36:25;;;;;;;2.88;1.27;;;23.70;96.70;;;;;;5066948;28;20515;-83
2023/08/05 09:39:06;;;;;;;2.92;1.20;;;23.70;96.70;;;;;;5064008;28;20136;-81
2023/08/05 09:41:35;;;;;;;2.33;1.13;;;23.70;96.70;;;;;;5059377;28;20393;-82
2023/08/05 09:44:05;;;;;;;4.20;1.40;;;23.80;96.70;;;;;;5065697;28;20060;-81
2023/08/05 09:46:41;;;;;;;2.78;1.25;;;23.90;96.70;;;;;;5065892;28;20041;-82
2023/08/05 09:49:17;;;;;;;3.03;1.25;;;23.90;96.70;;;;;;5065378;28;20044;-83
2023/08/05 09:51:47;;;;;;;2.50;1.05;;;23.90;96.70;;;;;;5064459;28;20493;-83
2023/08/05 09:54:25;;;;;;;5.20;1.77;;;23.90;96.70;;;;;;5062917;28;20043;-82
2023/08/05 09:56:54;;;;;;;2.72;1.13;;;23.90;96.70;;;;;;5063544;28;20051;-82
2023/08/05 09:59:24;;;;;;;3.20;1.30;;;23.90;96.70;;;;;;5048635;28;20040;-81
2023/08/05 10:01:54;;;;;;;3.30;1.30;;;24.00;96.70;;;;;;5058712;28;20056;-81
2023/08/05 10:04:26;;;;;;;2.08;1.05;;;24.10;96.70;;;;;;5065182;28;20044;-83
2023/08/05 10:06:55;;;;;;;3.63;1.17;;;24.10;96.70;;;;;;5065558;28;20063;-83
2023/08/05 10:09:23;;;;;;;3.88;1.42;;;24.20;96.70;;;;;;5064112;28;20535;-82
2023/08/05 10:11:52;;;;;;;2.03;1.13;;;24.20;96.70;;;;;;5065200;28;20052;-83
2023/08/05 10:14:21;;;;;;;1.73;1.17;;;24.20;96.70;;;;;;5064892;28;20045;-82
2023/08/05 10:16:50;;;;;;;3.55;1.20;;;24.00;96.70;;;;;;5069976;28;20044;-82
2023/08/05 10:19:30;;;;;;;3.05;1.42;;;24.00;96.70;;;;;;5068622;28;20045;-84
2023/08/05 10:22:09;;;;;;;2.33;1.02;;;24.20;96.70;;;;;;5070291;28;20231;-82
2023/08/05 10:24:51;;;;;;;3.70;1.20;;;24.40;96.70;;;;;;5068762;28;20037;-83
2023/08/05 10:27:36;;;;;;;1.45;1.00;;;24.60;96.70;;;;;;5067408;28;20048;-82
2023/08/05 10:30:07;;;;;;;2.55;1.20;;;24.80;96.70;;;;;;5059147;28;20528;-83
2023/08/05 10:32:35;;;;;;;2.60;1.40;;;24.80;96.70;;;;;;5066876;28;20073;-81
2023/08/05 10:35:28;;;;;;;3.95;1.42;;;24.90;96.70;;;;;;5065092;28;20045;-80
2023/08/05 10:38:09;;;;;;;2.25;0.98;;;24.90;96.70;;;;;;5083007;28;20122;-82
2023/08/05 10:40:41;;;;;;;4.75;1.35;;;25.00;96.70;;;;;;5066017;28;20703;-81
2023/08/05 10:43:10;;;;;;;3.97;1.63;;;24.90;96.70;;;;;;5067288;28;20071;-81
2023/08/05 10:45:43;;;;;;;3.85;3.13;;;24.90;96.70;;;;;;5066023;28;20090;-80
2023/08/05 10:48:13;;;;;;;3.03;1.30;;;24.90;96.70;;;;;;5057929;28;20080;-82
2023/08/05 10:50:44;;;;;;;2.58;1.15;;;25.10;96.70;;;;;;5068432;28;20040;-81
2023/08/05 10:53:13;;;;;;;6.47;1.70;;;25.30;96.70;;;;;;5066767;28;20105;-82
2023/08/05 10:55:48;;;;;;;3.00;1.15;;;25.40;96.70;;;;;;5066899;28;20044;-83
2023/08/05 10:58:22;;;;;;;3.30;1.20;;;25.60;96.70;;;;;;5066542;28;20049;-83
2023/08/05 11:00:58;;;;;;;2.15;0.90;;;25.60;96.70;;;;;;5067365;28;20443;-83
2023/08/05 11:03:31;;;;;;;2.83;1.10;;;25.80;96.70;;;;;;5067415;28;20180;-82
2023/08/05 11:06:03;;;;;;;2.88;1.27;;;26.00;96.70;;;;;;5066304;28;20520;-83
2023/08/05 11:08:33;;;;;;;1.83;0.85;;;25.90;96.70;;;;;;5065894;28;20043;-78
2023/08/05 11:11:02;;;;;;;4.20;1.20;;;26.10;96.70;;;;;;5065306;28;20044;-77
2023/08/05 11:13:34;;;;;;;3.13;1.30;;;26.20;96.70;;;;;;5066260;28;20044;-79
2023/08/05 11:16:08;;;;;;;1.67;1.02;;;26.00;96.70;;;;;;5072963;28;20437;-76
2023/08/05 11:18:38;;;;;;;2.97;1.05;;;26.00;96.70;;;;;;5065474;28;20088;-79
2023/08/05 11:21:10;;;;;;;3.78;1.30;;;26.00;96.70;;;;;;5058326;28;20051;-82
2023/08/05 11:23:39;;;;;;;3.13;1.08;;;26.00;96.70;;;;;;5073755;28;20071;-80
2023/08/05 11:26:09;;;;;;;3.70;1.10;;;25.80;96.70;;;;;;5064967;28;20101;-79
2023/08/05 11:28:42;;;;;;;1.45;0.75;;;25.70;96.70;;;;;;5065211;28;20052;-79
2023/08/05 11:31:21;;;;;;;1.10;0.73;;;25.80;96.70;;;;;;5063312;28;20053;-79
2023/08/05 11:33:49;;;;;;;2.35;0.68;;;25.90;96.70;;;;;;5064455;28;20139;-80
2023/08/05 11:36:23;;;;;;;2.15;0.88;;;25.90;96.70;;;;;;5066614;28;20543;-79
2023/08/05 11:38:54;;;;;;;2.25;0.70;;;26.00;96.70;;;;;;5064685;28;20044;-80
2023/08/05 11:41:23;;;;;;;1.13;0.60;;;26.00;96.70;;;;;;5064017;28;20110;-80
2023/08/05 11:43:51;;;;;;;1.45;0.52;;;25.80;96.70;;;;;;5064273;28;20490;-80
2023/08/05 11:46:27;;;;;;;0.95;0.50;;;25.80;96.70;;;;;;5042711;28;20455;-79
2023/08/05 11:49:08;;;;;;;1.13;0.60;;;25.60;96.70;;;;;;5065563;28;20301;-79
2023/08/05 11:51:46;;;;;;;1.48;0.60;;;25.60;96.70;;;;;;5058615;28;20040;-80
2023/08/05 11:54:25;;;;;;;1.35;0.57;;;25.70;96.70;;;;;;5064061;28;20446;-79
2023/08/05 11:56:53;;;;;;;1.85;0.50;;;26.00;96.70;;;;;;5066025;28;20048;-79
2023/08/05 11:59:39;;;;;;;1.67;0.55;;;26.10;96.70;;;;;;5046897;28;20144;-79
2023/08/05 12:02:09;;;;;;;1.17;0.50;;;26.00;96.70;;;;;;5064053;28;20055;-79
2023/08/05 12:04:48;;;;;;;2.83;0.70;;;25.90;96.70;;;;;;5063791;28;20466;-79
2023/08/05 12:07:20;;;;;;;1.00;0.55;;;25.90;96.70;;;;;;5063186;28;20045;-80
2023/08/05 12:10:04;;;;;;;1.17;0.60;;;25.90;96.70;;;;;;5065078;28;20086;-80
2023/08/05 12:12:32;;;;;;;3.22;0.80;;;26.00;96.70;;;;;;5060992;28;20044;-79
2023/08/05 12:15:11;;;;;;;2.45;1.13;;;26.00;96.70;;;;;;5065310;28;20044;-80
2023/08/05 12:17:44;;;;;;;3.67;0.57;;;26.10;96.70;;;;;;5064303;28;20048;-79
2023/08/05 12:20:16;;;;;;;5.53;5.03;;;26.30;96.70;;;;;;5064705;28;20044;-79
2023/08/05 12:22:46;;;;;;;2.28;0.82;;;26.30;96.70;;;;;;5064379;28;20040;-79
2023/08/05 12:25:18;;;;;;;2.38;1.10;;;26.30;96.70;;;;;;5063896;28;20124;-78
2023/08/05 12:27:48;;;;;;;2.45;0.82;;;26.40;96.70;;;;;;5062439;28;20075;-80
2023/08/05 12:30:17;;;;;;;1.13;0.50;;;26.60;96.70;;;;;;5063893;28;20049;-81
2023/08/05 12:32:45;;;;;;;0.98;0.50;;;26.50;96.70;;;;;;5064938;28;20051;-80
2023/08/05 12:35:14;;;;;;;1.13;0.30;;;26.50;96.70;;;;;;5071827;28;20049;-78
2023/08/05 12:37:43;;;;;;;2.13;0.40;;;26.60;96.70;;;;;;5065236;28;20634;-79
2023/08/05 12:40:13;;;;;;;0.63;0.20;;;26.60;96.70;;;;;;5063780;28;20041;-79
2023/08/05 12:42:42;;;;;;;1.45;0.20;;;26.50;96.70;;;;;;5047624;28;20282;-80
2023/08/05 12:45:10;;;;;;;0.10;0.10;;;26.40;96.70;;;;;;5063815;28;20036;-79
2023/08/05 12:47:40;;;;;;;0.70;0.22;;;26.30;96.70;;;;;;5064627;28;20044;-80
2023/08/05 12:50:10;;;;;;;0.20;0.20;;;26.30;96.70;;;;;;5064754;28;20193;-80
2023/08/05 12:52:39;;;;;;;0.98;0.30;;;26.30;96.70;;;;;;5047616;28;20098;-80
2023/08/05 12:55:08;;;;;;;0.25;0.20;;;26.20;96.70;;;;;;5055630;28;20040;-79
2023/08/05 12:57:39;;;;;;;0.25;0.10;;;26.10;96.70;;;;;;5062947;28;20496;-80
2023/08/05 13:00:09;;;;;;;0.77;0.10;;;26.10;96.70;;;;;;5063373;28;20055;-79
2023/08/05 13:02:37;;;;;;;0.82;0.10;;;26.10;96.70;;;;;;5061170;28;20044;-77
2023/08/05 13:05:06;;;;;;;1.50;0.35;;;26.00;96.70;;;;;;5060851;28;20064;-81